Time;durP1;ratioP1;P1;durP2;ratioP2;P2;SDS_P1;SDS_P2;PMS_P1;PMS_P2;Temp;Humidity;BMP_temperature;BMP_pressure;BME280_temperature;BME280_humidity;BME280_pressure;Samples;Min_cycle;Max_cycle;Signal;HPM_P1;HPM_P2
2022/03/01 00:00:09;;;;;;;2.80;2.70;;;;;;;0.58;67.71;102433.59;6147167;23;20017;-71
2022/03/01 00:02:36;;;;;;;2.45;2.35;;;;;;;0.43;68.11;102410.09;6091087;23;20123;-72
2022/03/01 00:05:03;;;;;;;2.60;2.50;;;;;;;0.28;68.54;102384.00;6135528;23;20024;-71
2022/03/01 00:07:29;;;;;;;2.60;2.50;;;;;;;-0.04;68.59;102318.06;6089661;23;20029;-72
2022/03/01 00:09:56;;;;;;;2.60;2.50;;;;;;;0.12;68.28;102336.38;6138558;23;20025;-71
2022/03/01 00:12:23;;;;;;;4.38;4.18;;;;;;;0.70;67.88;102432.06;6114457;23;20111;-71
2022/03/01 00:14:49;;;;;;;3.55;3.35;;;;;;;0.25;67.17;102371.91;6142585;23;20218;-71
2022/03/01 00:17:16;;;;;;;4.15;3.95;;;;;;;0.75;67.48;102441.63;6126984;23;20029;-72
2022/03/01 00:19:42;;;;;;;2.50;2.40;;;;;;;0.63;68.45;102445.75;6143412;23;20019;-71
2022/03/01 00:22:09;;;;;;;2.60;2.50;;;;;;;-1.04;68.89;102205.28;6151322;23;20339;-71
2022/03/01 00:24:37;;;;;;;2.50;2.40;;;;;;;-0.05;69.13;102364.47;6149646;23;20076;-71
2022/03/01 00:27:05;;;;;;;2.70;2.60;;;;;;;0.40;70.02;102459.09;6170365;23;20012;-70
2022/03/01 00:29:34;;;;;;;3.17;3.05;;;;;;;-0.43;69.93;102324.19;6130118;23;20013;-71
2022/03/01 00:32:01;;;;;;;2.65;2.55;;;;;;;0.32;70.08;102447.75;6125269;23;20578;-71
2022/03/01 00:34:27;;;;;;;4.32;4.13;;;;;;;-0.41;70.30;102353.47;6162115;23;20091;-70
2022/03/01 00:36:54;;;;;;;2.55;2.45;;;;;;;0.15;70.95;102442.28;6116531;23;20438;-71
2022/03/01 00:39:20;;;;;;;4.25;4.05;;;;;;;0.05;70.40;102450.69;6148712;23;20044;-71
2022/03/01 00:41:47;;;;;;;2.67;2.58;;;;;;;-0.08;70.45;102445.31;6142336;23;20029;-71
2022/03/01 00:44:14;;;;;;;3.00;2.90;;;;;;;-0.18;71.61;102456.28;6166091;23;20017;-71
2022/03/01 00:46:43;;;;;;;2.67;2.58;;;;;;;-0.90;71.71;102339.59;6145066;23;20517;-72
2022/03/01 00:49:09;;;;;;;2.40;2.30;;;;;;;-1.18;72.76;102301.16;6159758;23;20084;-71
2022/03/01 00:51:36;;;;;;;3.35;3.03;;;;;;;-1.03;72.19;102333.28;6141284;23;20088;-71
2022/03/01 00:54:04;;;;;;;2.70;2.60;;;;;;;-0.39;72.68;102443.78;6173078;23;20016;-70
2022/03/01 00:56:31;;;;;;;2.92;2.83;;;;;;;-1.13;72.62;102335.63;6133626;23;20613;-71
2022/03/01 00:58:58;;;;;;;2.70;2.60;;;;;;;-0.61;72.86;102414.94;6183885;23;20033;-71
2022/03/01 01:01:24;;;;;;;4.07;3.88;;;;;;;-0.43;73.25;102435.09;6143610;23;20593;-70
2022/03/01 01:03:52;;;;;;;2.55;2.45;;;;;;;-1.05;72.92;102341.81;6145013;23;20029;-71
2022/03/01 01:06:18;;;;;;;4.35;4.15;;;;;;;-1.55;72.74;102256.56;6163856;23;20048;-70
2022/03/01 01:08:45;;;;;;;2.67;2.58;;;;;;;-0.53;73.21;102427.16;6151359;23;20017;-71
2022/03/01 01:11:11;;;;;;;2.65;2.55;;;;;;;-0.39;72.92;102440.34;6174059;23;20004;-71
2022/03/01 01:13:38;;;;;;;2.90;2.80;;;;;;;-1.03;73.30;102371.91;6148706;23;20169;-70
2022/03/01 01:16:05;;;;;;;2.60;2.50;;;;;;;-0.55;73.20;102415.94;6173215;23;20021;-70
2022/03/01 01:18:31;;;;;;;5.35;4.88;;;;;;;-0.31;72.95;102447.41;6145383;23;20084;-71
2022/03/01 01:20:58;;;;;;;2.60;2.50;;;;;;;-0.29;73.11;102442.28;6115608;23;20084;-70
2022/03/01 01:23:24;;;;;;;4.25;4.05;;;;;;;-1.16;73.02;102292.63;6149787;23;20087;-70
2022/03/01 01:25:51;;;;;;;2.55;2.45;;;;;;;-0.28;72.52;102439.72;6143557;23;20016;-71
2022/03/01 01:28:18;;;;;;;4.55;4.35;;;;;;;-0.87;72.28;102355.09;6160498;23;20016;-70
2022/03/01 01:30:44;;;;;;;2.42;2.33;;;;;;;-1.10;72.84;102315.06;6190434;23;20092;-70
2022/03/01 01:33:13;;;;;;;2.50;2.40;;;;;;;-0.71;72.90;102387.22;6137727;23;20203;-70
2022/03/01 01:35:39;;;;;;;2.53;2.42;;;;;;;-1.22;73.23;102289.94;6175843;23;20040;-71
2022/03/01 01:38:06;;;;;;;2.58;2.47;;;;;;;-1.36;73.24;102265.56;6148967;23;20033;-71
2022/03/01 01:40:34;;;;;;;2.55;2.45;;;;;;;-0.25;73.40;102449.25;6138231;23;20045;-71
2022/03/01 01:43:02;;;;;;;2.65;2.55;;;;;;;-0.21;73.72;102445.88;6159354;23;20024;-71
2022/03/01 01:45:29;;;;;;;3.55;3.45;;;;;;;-1.16;73.31;102261.72;6148995;23;20047;-72
2022/03/01 01:47:58;;;;;;;2.70;2.60;;;;;;;-0.35;73.23;102391.41;6171755;23;20382;-72
2022/03/01 01:50:26;;;;;;;3.88;3.70;;;;;;;-0.51;73.12;102379.06;6146815;23;20016;-72
2022/03/01 01:52:54;;;;;;;3.58;3.33;;;;;;;-1.67;72.98;102151.59;6116961;23;20009;-72
2022/03/01 01:55:23;;;;;;;5.00;4.80;;;;;;;0.09;73.11;102439.59;6164797;23;20016;-70
2022/03/01 01:57:56;;;;;;;2.50;2.40;;;;;;;-0.29;72.72;102372.63;6146962;23;20386;-71
2022/03/01 02:00:23;;;;;;;4.60;4.40;;;;;;;-0.29;72.90;102357.13;6161920;23;20008;-71
2022/03/01 02:02:50;;;;;;;2.40;2.30;;;;;;;0.34;71.87;102421.13;6171217;23;20441;-71
2022/03/01 02:05:17;;;;;;;4.25;4.05;;;;;;;0.47;71.52;102418.75;6152314;23;20020;-71
2022/03/01 02:07:47;;;;;;;2.80;2.70;;;;;;;0.50;71.15;102405.88;6145025;23;20958;-71
2022/03/01 02:10:15;;;;;;;2.90;2.80;;;;;;;0.48;71.40;102407.56;6166177;23;20071;-72
2022/03/01 02:12:41;;;;;;;2.40;2.30;;;;;;;0.55;70.32;102401.69;6112283;23;20363;-70
2022/03/01 02:15:09;;;;;;;2.90;2.80;;;;;;;-1.58;70.80;102045.38;6162913;23;20021;-71
2022/03/01 02:17:38;;;;;;;2.38;2.28;;;;;;;-0.13;70.98;102294.66;6141460;23;20029;-71
2022/03/01 02:20:16;;;;;;;3.05;2.90;;;;;;;-0.09;70.92;102323.97;6177126;23;20335;-72
2022/03/01 02:22:42;;;;;;;2.50;2.40;;;;;;;0.48;71.00;102417.91;6120172;23;20084;-71
2022/03/01 02:25:10;;;;;;;2.60;2.50;;;;;;;0.43;71.51;102411.81;6174066;23;20048;-70
2022/03/01 02:27:40;;;;;;;2.40;2.30;;;;;;;0.42;70.90;102418.66;6124683;23;20040;-71
2022/03/01 02:30:09;;;;;;;2.60;2.50;;;;;;;-0.65;71.17;102247.28;6164334;23;20016;-71
2022/03/01 02:32:37;;;;;;;2.50;2.40;;;;;;;0.34;72.00;102420.25;6162622;23;20609;-71
2022/03/01 02:35:05;;;;;;;2.40;2.30;;;;;;;0.36;71.55;102411.69;6138783;23;20025;-71
2022/03/01 02:37:32;;;;;;;2.60;2.50;;;;;;;0.12;71.29;102383.72;6167883;23;20047;-71
2022/03/01 02:39:59;;;;;;;2.78;2.67;;;;;;;0.32;71.17;102412.50;6151079;23;20514;-71
2022/03/01 02:42:27;;;;;;;4.25;4.05;;;;;;;0.35;70.84;102415.13;6159130;23;20095;-72
2022/03/01 02:44:54;;;;;;;4.13;2.70;;;;;;;0.16;70.60;102384.63;6128887;23;20529;-71
2022/03/01 02:47:20;;;;;;;4.43;4.22;;;;;;;0.38;70.79;102420.34;6171623;23;20158;-71
2022/03/01 02:49:47;;;;;;;2.50;2.40;;;;;;;0.44;70.82;102421.28;6163003;23;20061;-71
2022/03/01 02:52:14;;;;;;;3.50;3.38;;;;;;;0.45;70.21;102415.28;6142456;23;20297;-71
2022/03/01 02:54:40;;;;;;;2.50;2.40;;;;;;;-0.39;69.81;102289.03;6158955;23;20212;-71
2022/03/01 02:57:07;;;;;;;3.30;3.20;;;;;;;-0.29;70.00;102290.94;6146181;23;20076;-70
2022/03/01 02:59:33;;;;;;;2.70;2.60;;;;;;;-0.59;70.37;102256.84;6165187;23;20086;-71
2022/03/01 03:02:01;;;;;;;2.65;2.55;;;;;;;0.38;69.91;102412.59;6143208;23;20027;-71
2022/03/01 03:04:27;;;;;;;4.35;4.15;;;;;;;0.23;69.55;102390.81;6174765;23;20088;-71
2022/03/01 03:06:54;;;;;;;3.00;2.90;;;;;;;0.45;69.51;102426.47;6151960;23;20029;-71
2022/03/01 03:09:21;;;;;;;4.47;4.28;;;;;;;0.34;69.19;102391.84;6172258;23;20024;-71
2022/03/01 03:11:48;;;;;;;2.70;2.60;;;;;;;0.44;70.13;102405.78;6112918;23;20025;-70
2022/03/01 03:14:15;;;;;;;3.67;3.55;;;;;;;0.47;69.91;102437.72;6171079;23;20040;-71
2022/03/01 03:16:44;;;;;;;2.50;2.40;;;;;;;0.50;70.27;102413.63;6148832;23;20043;-71
2022/03/01 03:19:11;;;;;;;2.92;2.70;;;;;;;0.09;69.75;102362.16;6134413;23;20076;-71
2022/03/01 03:21:37;;;;;;;7.13;3.25;;;;;;;0.24;70.02;102392.53;6114879;23;20088;-72
2022/03/01 03:24:04;;;;;;;2.78;2.67;;;;;;;0.40;70.16;102412.59;6169390;23;20096;-70
2022/03/01 03:26:32;;;;;;;3.13;3.03;;;;;;;-0.90;69.67;102208.16;6139168;23;20147;-71
2022/03/01 03:28:58;;;;;;;2.80;2.70;;;;;;;0.17;69.59;102381.22;6172687;23;20079;-71
2022/03/01 03:31:25;;;;;;;4.25;4.05;;;;;;;0.36;70.39;102401.38;6138028;23;20029;-70
2022/03/01 03:33:52;;;;;;;2.53;2.42;;;;;;;0.04;70.16;102353.44;6160347;23;20429;-70
2022/03/01 03:36:18;;;;;;;5.00;4.05;;;;;;;0.00;69.62;102321.56;6144333;23;20048;-70
2022/03/01 03:38:45;;;;;;;2.90;2.80;;;;;;;0.54;68.93;102394.75;6145900;23;20020;-71
2022/03/01 03:41:11;;;;;;;2.97;2.88;;;;;;;0.74;68.45;102401.16;6156698;23;20029;-71
2022/03/01 03:43:38;;;;;;;2.55;2.45;;;;;;;0.78;67.99;102404.63;6134670;23;20036;-71
2022/03/01 03:46:05;;;;;;;2.47;2.38;;;;;;;0.26;67.35;102288.44;6135835;23;20722;-71
2022/03/01 03:48:31;;;;;;;2.83;2.72;;;;;;;0.58;66.77;102330.28;6162868;23;20330;-71
2022/03/01 03:50:58;;;;;;;2.50;2.40;;;;;;;0.80;66.81;102361.59;6144647;23;20386;-71
2022/03/01 03:53:24;;;;;;;4.45;4.25;;;;;;;0.55;67.10;102331.94;6124201;23;20023;-71
2022/03/01 03:55:51;;;;;;;3.63;3.42;;;;;;;0.66;66.77;102342.41;6132622;23;20112;-71
2022/03/01 03:58:17;;;;;;;3.83;3.72;;;;;;;0.96;67.25;102388.53;6134495;23;20044;-71
2022/03/01 04:00:44;;;;;;;2.70;2.60;;;;;;;0.51;66.84;102299.16;6142770;23;20032;-71
2022/03/01 04:03:11;;;;;;;3.00;2.80;;;;;;;1.03;66.76;102385.19;6136396;23;20013;-71
2022/03/01 04:05:38;;;;;;;3.15;3.05;;;;;;;1.06;66.37;102377.47;6150851;23;20029;-71
2022/03/01 04:08:05;;;;;;;2.60;2.50;;;;;;;-0.50;66.26;102118.63;6142642;23;20394;-70
2022/03/01 04:10:31;;;;;;;3.15;2.97;;;;;;;1.15;66.16;102387.97;6154330;23;20009;-70
2022/03/01 04:12:59;;;;;;;2.80;2.70;;;;;;;1.13;65.85;102383.63;6145605;23;20037;-71
2022/03/01 04:15:25;;;;;;;4.25;4.05;;;;;;;1.10;66.11;102394.78;6136485;23;20074;-71
2022/03/01 04:17:52;;;;;;;3.38;3.22;;;;;;;1.07;66.34;102392.16;6165371;23;20031;-71
2022/03/01 04:20:21;;;;;;;3.28;3.15;;;;;;;-0.06;66.10;102219.09;6145013;23;20179;-71
2022/03/01 04:22:48;;;;;;;2.58;2.47;;;;;;;0.77;66.39;102365.00;6172943;23;20028;-71
2022/03/01 04:25:15;;;;;;;2.88;2.78;;;;;;;0.16;66.62;102240.06;6153153;23;20020;-71
2022/03/01 04:27:42;;;;;;;2.50;2.40;;;;;;;0.57;66.33;102325.94;6159450;23;20123;-71
2022/03/01 04:30:12;;;;;;;2.40;2.30;;;;;;;0.94;66.06;102424.72;6140188;23;20031;-70
2022/03/01 04:32:43;;;;;;;2.75;2.65;;;;;;;0.24;66.54;102295.31;6163986;23;20066;-71
2022/03/01 04:35:13;;;;;;;2.50;2.40;;;;;;;0.38;67.50;102329.06;6122128;23;20077;-70
2022/03/01 04:37:41;;;;;;;2.70;2.60;;;;;;;0.72;67.79;102399.34;6114607;23;20033;-71
2022/03/01 04:40:09;;;;;;;2.40;2.30;;;;;;;0.38;67.00;102337.72;6166780;23;20076;-71
2022/03/01 04:42:36;;;;;;;2.70;2.60;;;;;;;-0.12;66.73;102262.88;6137977;23;20360;-71
2022/03/01 04:45:05;;;;;;;2.60;2.50;;;;;;;0.82;66.42;102408.13;6142057;23;20040;-70
2022/03/01 04:47:31;;;;;;;3.20;2.95;;;;;;;0.87;66.43;102406.50;6132670;23;20195;-71
2022/03/01 04:49:58;;;;;;;2.60;2.50;;;;;;;0.92;65.91;102425.53;6152081;23;20083;-71
2022/03/01 04:52:25;;;;;;;4.13;3.92;;;;;;;1.01;65.84;102407.56;6157739;23;20339;-71
2022/03/01 04:54:51;;;;;;;2.40;2.30;;;;;;;0.64;65.45;102332.06;6153855;23;20021;-71
2022/03/01 04:57:18;;;;;;;3.50;3.40;;;;;;;0.42;65.39;102293.84;6175375;23;20044;-71
2022/03/01 04:59:44;;;;;;;2.60;2.50;;;;;;;0.50;65.09;102320.66;6146256;23;20041;-71
2022/03/01 05:02:11;;;;;;;2.45;2.35;;;;;;;0.56;65.10;102333.66;6176805;23;20107;-71
2022/03/01 05:04:38;;;;;;;2.50;2.40;;;;;;;0.42;64.81;102319.66;6135067;23;20309;-70
2022/03/01 05:07:07;;;;;;;2.50;2.40;;;;;;;0.58;65.29;102345.78;6142417;23;20021;-72
2022/03/01 05:09:34;;;;;;;2.50;2.40;;;;;;;-0.13;64.72;102227.56;6160567;23;20013;-72
2022/03/01 05:12:01;;;;;;;2.60;2.50;;;;;;;1.17;64.92;102413.84;6127096;23;20024;-70
2022/03/01 05:14:27;;;;;;;4.13;3.92;;;;;;;1.25;64.72;102401.03;6154465;23;20419;-70
2022/03/01 05:16:54;;;;;;;2.70;2.60;;;;;;;0.87;64.33;102331.56;6136920;23;20364;-69
2022/03/01 05:19:20;;;;;;;6.28;5.97;;;;;;;1.25;64.78;102394.13;6176081;23;20253;-70
2022/03/01 05:21:47;;;;;;;2.40;2.30;;;;;;;0.32;64.35;102225.69;6153026;23;20015;-69
2022/03/01 05:24:15;;;;;;;2.92;2.83;;;;;;;0.95;63.68;102325.63;6171511;23;20072;-70
2022/03/01 05:26:44;;;;;;;2.50;2.40;;;;;;;0.30;63.81;102212.78;6153755;23;20093;-70
2022/03/01 05:29:11;;;;;;;2.42;2.33;;;;;;;1.13;64.19;102376.72;6162819;23;20019;-70
2022/03/01 05:31:37;;;;;;;2.50;2.40;;;;;;;1.05;64.53;102362.81;6144587;23;20427;-70
2022/03/01 05:34:04;;;;;;;2.60;2.50;;;;;;;0.95;64.50;102353.19;6170983;23;20089;-70
2022/03/01 05:36:30;;;;;;;3.63;3.40;;;;;;;1.26;64.90;102410.50;6156915;23;20041;-70
2022/03/01 05:38:57;;;;;;;2.60;2.50;;;;;;;0.48;64.25;102296.50;6146805;23;20053;-70
2022/03/01 05:41:24;;;;;;;3.92;3.75;;;;;;;1.21;65.08;102414.75;6167413;23;20045;-71
2022/03/01 05:43:50;;;;;;;2.45;2.35;;;;;;;0.70;64.96;102328.69;6174486;23;20182;-71
2022/03/01 05:46:17;;;;;;;3.60;3.42;;;;;;;1.28;64.78;102399.31;6134092;23;20066;-70
2022/03/01 05:48:44;;;;;;;2.60;2.50;;;;;;;0.82;64.67;102330.59;6168811;23;20432;-70
2022/03/01 05:51:10;;;;;;;2.40;2.30;;;;;;;0.67;64.44;102320.91;6160815;23;20069;-71
2022/03/01 05:53:37;;;;;;;2.50;2.40;;;;;;;1.28;64.05;102404.50;6143386;23;20086;-70
2022/03/01 05:56:04;;;;;;;2.50;2.40;;;;;;;0.59;64.33;102303.56;6154165;23;20025;-70
2022/03/01 05:58:30;;;;;;;3.53;3.42;;;;;;;1.27;64.43;102422.59;6154890;23;20504;-71
2022/03/01 06:00:57;;;;;;;2.60;2.50;;;;;;;0.47;64.52;102297.38;6139595;23;20086;-71
2022/03/01 06:03:24;;;;;;;4.28;4.07;;;;;;;0.42;64.08;102291.25;6134406;23;20025;-71
2022/03/01 06:05:51;;;;;;;2.70;2.60;;;;;;;0.47;64.43;102310.28;6164262;23;20024;-70
2022/03/01 06:08:17;;;;;;;4.03;3.85;;;;;;;1.23;64.46;102433.75;6171658;23;20028;-69
2022/03/01 06:10:48;;;;;;;11.77;11.18;;;;;;;0.97;64.11;102387.69;6064918;23;20305;-70
2022/03/01 06:13:14;;;;;;;3.17;3.08;;;;;;;1.30;63.71;102436.44;6073660;23;20051;-70
2022/03/01 06:15:41;;;;;;;2.42;2.33;;;;;;;1.35;63.20;102452.91;6186075;23;20021;-70
2022/03/01 06:18:08;;;;;;;2.90;2.70;;;;;;;0.88;63.51;102341.03;6139366;23;20098;-71
2022/03/01 06:20:35;;;;;;;2.78;2.67;;;;;;;0.89;63.65;102343.63;6156918;23;20036;-70
2022/03/01 06:23:02;;;;;;;2.75;2.65;;;;;;;0.97;64.33;102379.94;6150988;23;20035;-71
2022/03/01 06:25:28;;;;;;;3.80;3.67;;;;;;;1.35;64.36;102411.50;6163934;23;20383;-71
2022/03/01 06:27:55;;;;;;;2.40;2.30;;;;;;;1.18;63.92;102385.44;6146223;23;20037;-70
2022/03/01 06:30:22;;;;;;;4.45;4.25;;;;;;;0.65;63.24;102286.44;6134686;23;20301;-70
2022/03/01 06:32:48;;;;;;;2.50;2.40;;;;;;;0.54;63.61;102278.50;6136062;23;20024;-70
2022/03/01 06:35:15;;;;;;;3.33;3.13;;;;;;;0.96;62.23;102334.25;6170205;23;20036;-70
2022/03/01 06:37:46;;;;;;;2.40;2.30;;;;;;;0.83;62.87;102307.38;6158813;23;20263;-70
2022/03/01 06:40:13;;;;;;;2.80;2.70;;;;;;;1.59;62.48;102416.13;6145741;23;20040;-70
2022/03/01 06:42:40;;;;;;;2.80;2.70;;;;;;;1.18;62.77;102353.50;6168874;23;20371;-71
2022/03/01 06:45:07;;;;;;;2.70;2.60;;;;;;;1.35;62.19;102374.44;6137293;23;20077;-70
2022/03/01 06:47:34;;;;;;;3.05;2.95;;;;;;;1.62;62.08;102417.88;6153009;23;20260;-69
2022/03/01 06:50:01;;;;;;;2.97;2.88;;;;;;;1.33;61.40;102355.44;6137322;23;20091;-69
2022/03/01 06:52:29;;;;;;;4.40;4.20;;;;;;;1.22;61.92;102359.59;6159925;23;20367;-71
2022/03/01 06:54:55;;;;;;;2.50;2.40;;;;;;;1.38;61.43;102375.34;6134914;23;20026;-70
2022/03/01 06:57:22;;;;;;;4.43;4.22;;;;;;;1.81;61.39;102428.50;6168157;23;20034;-69
2022/03/01 06:59:48;;;;;;;2.80;2.70;;;;;;;1.52;61.06;102359.97;6159099;23;20032;-70
2022/03/01 07:02:15;;;;;;;3.10;2.90;;;;;;;1.25;60.74;102315.69;6162527;23;20404;-70
2022/03/01 07:04:41;;;;;;;2.45;2.35;;;;;;;1.23;61.51;102327.72;6137630;23;20008;-70
2022/03/01 07:07:09;;;;;;;2.80;2.70;;;;;;;1.45;60.68;102357.31;6165247;23;20021;-68
2022/03/01 07:09:35;;;;;;;3.45;3.25;;;;;;;1.19;60.76;102326.81;6151416;23;20433;-69
2022/03/01 07:12:02;;;;;;;3.08;2.97;;;;;;;1.92;60.20;102432.06;6172792;23;20014;-69
2022/03/01 07:14:29;;;;;;;5.05;4.80;;;;;;;1.69;60.58;102399.00;6139086;23;20081;-70
2022/03/01 07:17:03;;;;;;;3.25;3.05;;;;;;;1.19;60.06;102308.72;6166859;23;20040;-71
2022/03/01 07:19:29;;;;;;;3.38;3.20;;;;;;;1.91;60.48;102420.84;6151937;23;20154;-70
2022/03/01 07:21:56;;;;;;;3.20;3.05;;;;;;;1.95;60.82;102416.56;6142923;23;20020;-70
2022/03/01 07:24:25;;;;;;;2.85;2.70;;;;;;;1.36;60.50;102304.63;6165396;23;20029;-70
2022/03/01 07:26:52;;;;;;;2.55;2.45;;;;;;;0.67;60.14;102195.19;6138215;23;20913;-71
2022/03/01 07:29:18;;;;;;;5.75;5.15;;;;;;;1.90;60.88;102405.28;6132294;23;20058;-70
2022/03/01 07:31:45;;;;;;;4.10;3.25;;;;;;;0.53;59.29;102186.38;6134732;23;20025;-72
2022/03/01 07:34:11;;;;;;;2.50;2.40;;;;;;;2.14;60.62;102423.66;6145616;23;20511;-70
2022/03/01 07:36:40;;;;;;;3.08;2.88;;;;;;;2.14;60.07;102421.06;6137921;23;20036;-70
2022/03/01 07:39:07;;;;;;;2.50;2.40;;;;;;;0.84;60.23;102212.59;6171633;23;20100;-70
2022/03/01 07:41:34;;;;;;;2.63;2.53;;;;;;;2.24;59.16;102423.78;6121368;23;20059;-70
2022/03/01 07:44:00;;;;;;;2.70;2.60;;;;;;;2.36;59.28;102429.06;6150798;23;20028;-72
2022/03/01 07:46:27;;;;;;;4.18;3.97;;;;;;;0.97;59.19;102183.47;6136279;23;20009;-72
2022/03/01 07:48:53;;;;;;;2.85;2.75;;;;;;;2.50;58.74;102447.34;6140240;23;20100;-71
2022/03/01 07:51:20;;;;;;;7.60;4.68;;;;;;;2.18;58.41;102376.22;6167681;23;20115;-71
2022/03/01 07:53:49;;;;;;;2.70;2.60;;;;;;;2.38;57.98;102386.75;6135066;23;20603;-71
2022/03/01 07:56:15;;;;;;;3.47;3.38;;;;;;;2.70;58.52;102439.75;6169496;23;20013;-71
2022/03/01 07:58:43;;;;;;;3.00;2.90;;;;;;;1.96;58.04;102302.63;6136932;23;20049;-71
2022/03/01 08:01:09;;;;;;;3.25;3.05;;;;;;;2.33;57.52;102357.38;6117703;23;20009;-69
2022/03/01 08:03:36;;;;;;;3.05;2.85;;;;;;;2.06;57.28;102295.81;6150968;23;20603;-70
2022/03/01 08:06:02;;;;;;;3.00;2.90;;;;;;;2.55;57.44;102373.97;6133740;23;20033;-70
2022/03/01 08:08:29;;;;;;;4.30;4.10;;;;;;;3.04;56.52;102442.59;6154749;23;20099;-70
2022/03/01 08:10:56;;;;;;;2.78;2.67;;;;;;;3.10;56.51;102432.28;6132375;23;20074;-70
2022/03/01 08:13:39;;;;;;;3.10;3.00;;;;;;;3.27;56.66;102425.47;6159884;23;20016;-70
2022/03/01 08:16:06;;;;;;;3.53;3.35;;;;;;;3.26;55.66;102420.28;6138966;23;20016;-71
2022/03/01 08:18:33;;;;;;;2.97;2.88;;;;;;;2.96;55.04;102377.72;6162652;23;20473;-71
2022/03/01 08:20:59;;;;;;;3.05;2.95;;;;;;;2.75;55.63;102332.66;6150690;23;20095;-70
2022/03/01 08:23:26;;;;;;;4.40;4.20;;;;;;;3.46;55.18;102416.03;6165156;23;20024;-70
2022/03/01 08:25:56;;;;;;;2.97;2.88;;;;;;;3.62;54.02;102434.31;6139935;23;20504;-71
2022/03/01 08:28:23;;;;;;;3.88;3.58;;;;;;;3.12;54.04;102331.97;6173243;23;20036;-71
2022/03/01 08:30:51;;;;;;;2.80;2.70;;;;;;;3.20;53.30;102328.56;6152661;23;20025;-71
2022/03/01 08:33:20;;;;;;;4.78;4.57;;;;;;;3.70;53.21;102376.34;6118914;23;20029;-70
2022/03/01 08:35:46;;;;;;;6.32;4.57;;;;;;;3.92;53.44;102399.78;6115472;23;20079;-70
2022/03/01 08:38:13;;;;;;;3.53;3.22;;;;;;;4.02;51.94;102372.09;6132873;23;20038;-71
2022/03/01 08:40:40;;;;;;;3.20;3.10;;;;;;;4.13;52.30;102366.06;6147664;23;20028;-70
2022/03/01 08:43:08;;;;;;;3.00;2.90;;;;;;;4.39;50.96;102392.09;6134837;23;20071;-70
2022/03/01 08:45:35;;;;;;;3.03;2.92;;;;;;;4.69;51.38;102412.88;6165004;23;20033;-70
2022/03/01 08:48:06;;;;;;;3.58;3.47;;;;;;;3.94;50.14;102291.56;6130353;23;20063;-71
2022/03/01 08:50:33;;;;;;;3.95;3.63;;;;;;;4.70;50.93;102444.09;6169920;23;20021;-71
2022/03/01 08:53:14;;;;;;;4.03;3.85;;;;;;;4.72;50.65;102447.56;6126276;23;20072;-70
2022/03/01 08:55:41;;;;;;;3.20;3.10;;;;;;;3.79;49.46;102251.75;6154343;23;20075;-71
2022/03/01 08:58:07;;;;;;;3.42;3.33;;;;;;;4.67;49.89;102386.91;6133620;23;20084;-71
2022/03/01 09:00:34;;;;;;;3.80;3.65;;;;;;;4.67;49.42;102386.00;6166912;23;20478;-71
2022/03/01 09:03:00;;;;;;;3.50;3.30;;;;;;;5.08;48.82;102437.16;6129779;23;20545;-71
2022/03/01 09:05:32;;;;;;;3.05;2.95;;;;;;;5.10;49.22;102445.81;6156352;23;20572;-70
2022/03/01 09:07:59;;;;;;;2.80;2.70;;;;;;;5.19;48.50;102449.28;6159133;23;20020;-69
2022/03/01 09:10:26;;;;;;;4.50;4.30;;;;;;;5.24;47.75;102457.06;6127297;23;20041;-71
2022/03/01 09:12:54;;;;;;;3.38;3.20;;;;;;;5.12;47.88;102459.69;6153561;23;20044;-72
2022/03/01 09:15:21;;;;;;;4.20;4.00;;;;;;;5.06;47.96;102451.91;6137774;23;20507;-71
2022/03/01 09:17:49;;;;;;;3.00;2.90;;;;;;;5.22;48.61;102466.63;6166314;23;20083;-72
2022/03/01 09:20:16;;;;;;;4.03;3.85;;;;;;;4.94;47.85;102425.00;6139635;23;20033;-72
2022/03/01 09:22:43;;;;;;;3.72;3.55;;;;;;;5.17;48.97;102448.41;6164778;23;20001;-71
2022/03/01 09:25:09;;;;;;;3.25;3.08;;;;;;;3.80;48.49;102195.47;6145607;23;20032;-71
2022/03/01 09:27:36;;;;;;;3.63;3.45;;;;;;;4.81;48.25;102379.06;6167414;23;20495;-71
2022/03/01 09:30:03;;;;;;;3.45;3.35;;;;;;;4.95;48.45;102428.47;6122884;23;20092;-72
2022/03/01 09:32:29;;;;;;;4.28;4.07;;;;;;;5.02;49.10;102427.63;6160098;23;20098;-72
2022/03/01 09:34:57;;;;;;;3.40;3.30;;;;;;;5.05;49.10;102435.44;6153539;23;20056;-71
2022/03/01 09:37:24;;;;;;;4.43;4.22;;;;;;;2.27;49.95;101976.53;6135915;23;20071;-71
2022/03/01 09:39:51;;;;;;;3.30;3.20;;;;;;;4.86;49.76;102411.16;6169905;23;20045;-71
2022/03/01 09:42:18;;;;;;;3.70;3.60;;;;;;;4.86;50.41;102399.88;6152450;23;20088;-72
2022/03/01 09:44:44;;;;;;;3.53;3.42;;;;;;;4.84;49.67;102389.47;6137812;23;20028;-72
2022/03/01 09:47:11;;;;;;;2.83;2.72;;;;;;;4.53;50.27;102305.41;6147998;23;20289;-71
2022/03/01 09:49:38;;;;;;;3.30;3.20;;;;;;;5.60;49.35;102439.63;6152970;23;20134;-71
2022/03/01 09:52:11;;;;;;;3.10;3.00;;;;;;;5.72;47.90;102373.59;6143374;23;20009;-73
2022/03/01 09:54:37;;;;;;;3.47;3.28;;;;;;;6.30;46.18;102408.91;6125797;23;20471;-72
2022/03/01 09:57:04;;;;;;;3.10;3.00;;;;;;;5.80;46.27;102291.06;6175760;23;20016;-73
2022/03/01 09:59:30;;;;;;;3.90;3.72;;;;;;;6.98;44.65;102443.16;6146909;23;20036;-72
2022/03/01 10:01:57;;;;;;;3.60;3.50;;;;;;;6.44;43.06;102335.78;6178870;23;20050;-72
2022/03/01 10:04:25;;;;;;;5.22;4.93;;;;;;;7.49;43.70;102433.03;6162482;23;20036;-72
2022/03/01 10:06:52;;;;;;;4.07;3.83;;;;;;;7.54;42.80;102433.00;6177671;23;20032;-72
2022/03/01 10:09:21;;;;;;;4.53;4.32;;;;;;;7.23;42.63;102393.28;6147719;23;20062;-71
2022/03/01 10:11:48;;;;;;;3.30;3.20;;;;;;;7.96;43.19;102449.91;6146855;23;20088;-72
2022/03/01 10:14:25;;;;;;;4.07;3.90;;;;;;;6.16;41.25;102182.22;6171659;23;20024;-73
2022/03/01 10:16:54;;;;;;;5.18;4.78;;;;;;;7.77;41.73;102393.50;6143035;23;20040;-73
2022/03/01 10:19:22;;;;;;;5.07;4.88;;;;;;;7.75;41.12;102380.44;6168627;23;20342;-72
2022/03/01 10:21:56;;;;;;;4.00;3.80;;;;;;;7.71;39.30;102384.00;6146727;23;20503;-72
2022/03/01 10:24:22;;;;;;;6.40;6.10;;;;;;;8.28;41.09;102453.81;6165789;23;20357;-72
2022/03/01 10:26:49;;;;;;;3.97;3.70;;;;;;;8.22;39.27;102453.03;6142645;23;20024;-71
2022/03/01 10:29:43;;;;;;;3.58;3.47;;;;;;;7.71;41.08;102370.06;6166766;23;20029;-71
2022/03/01 10:32:11;;;;;;;4.00;3.80;;;;;;;7.78;41.55;102387.41;6138153;23;20028;-72
2022/03/01 10:34:38;;;;;;;4.22;4.03;;;;;;;8.26;41.55;102445.13;6175289;23;20029;-72
2022/03/01 10:37:05;;;;;;;4.07;3.88;;;;;;;6.86;40.77;102251.00;6150635;23;20015;-71
2022/03/01 10:39:33;;;;;;;3.88;3.67;;;;;;;8.20;41.15;102453.06;6137951;23;20059;-72
2022/03/01 10:42:03;;;;;;;4.72;4.43;;;;;;;7.71;41.66;102394.44;6138783;23;20210;-71
2022/03/01 10:44:30;;;;;;;4.38;4.18;;;;;;;8.06;40.67;102445.41;6121167;23;20034;-71
2022/03/01 10:47:01;;;;;;;4.13;3.92;;;;;;;7.50;41.47;102366.84;6140604;23;20080;-72
2022/03/01 10:49:33;;;;;;;6.13;5.82;;;;;;;6.88;40.31;102295.34;6146862;23;20360;-71
2022/03/01 10:52:05;;;;;;;4.00;3.80;;;;;;;7.50;42.35;102399.97;6131522;23;20025;-71
2022/03/01 10:54:34;;;;;;;4.70;4.50;;;;;;;8.03;41.92;102450.66;6155053;23;20060;-71
2022/03/01 10:57:03;;;;;;;4.03;3.85;;;;;;;8.06;41.64;102457.59;6172438;23;20507;-73
2022/03/01 10:59:32;;;;;;;5.03;4.82;;;;;;;8.19;41.70;102472.25;6136568;23;20023;-72
2022/03/01 11:02:00;;;;;;;4.20;4.00;;;;;;;8.35;40.08;102463.28;6167133;23;20032;-72
2022/03/01 11:04:27;;;;;;;5.03;4.72;;;;;;;8.43;42.06;102460.59;6155274;23;20706;-72
2022/03/01 11:06:59;;;;;;;3.67;3.58;;;;;;;8.12;40.07;102452.31;6137011;23;20036;-71
2022/03/01 11:09:29;;;;;;;4.05;3.85;;;;;;;8.17;40.49;102424.34;6168467;23;20111;-71
2022/03/01 11:11:58;;;;;;;4.38;4.18;;;;;;;8.35;39.95;102457.19;6115417;23;20021;-70
2022/03/01 11:15:01;;;;;;;5.35;5.10;;;;;;;8.55;39.41;102447.31;6137486;23;20472;-72
2022/03/01 11:17:47;;;;;;;;;;;;;;;8.36;38.59;102449.34;6136849;23;20055;-73
2022/03/01 11:20:20;;;;;;;3.90;3.75;;;;;;;8.21;38.92;102435.63;6158796;23;20145;-70
2022/03/01 11:22:52;;;;;;;3.90;3.70;;;;;;;8.32;38.79;102423.25;6143507;23;20476;-72
2022/03/01 11:25:25;;;;;;;6.28;5.97;;;;;;;7.91;37.66;102365.41;6156565;23;20066;-72
2022/03/01 11:28:00;;;;;;;4.10;3.90;;;;;;;7.47;38.83;102332.91;6151825;23;20040;-71
2022/03/01 11:30:31;;;;;;;5.20;5.00;;;;;;;7.53;39.35;102355.50;6132377;23;20099;-70
2022/03/01 11:32:58;;;;;;;4.30;4.10;;;;;;;7.93;39.28;102389.78;6150096;23;20009;-72